sensor_id;sensor_type;location;lat;lon;timestamp;P1;durP1;ratioP1;P2;durP2;ratioP2
25199;SDS011;33094;48.782;9.162;2022-12-07T00:03:17;15.40;;;9.48;;
25199;SDS011;33094;48.782;9.162;2022-12-07T00:16:09;19.65;;;10.88;;
25199;SDS011;33094;48.782;9.162;2022-12-07T00:19:36;17.70;;;10.63;;
25199;SDS011;33094;48.782;9.162;2022-12-07T00:22:12;14.88;;;10.05;;
25199;SDS011;33094;48.782;9.162;2022-12-07T00:25:27;17.63;;;11.05;;
25199;SDS011;33094;48.782;9.162;2022-12-07T00:28:36;20.70;;;11.07;;
25199;SDS011;33094;48.782;9.162;2022-12-07T00:34:55;15.85;;;10.45;;
25199;SDS011;33094;48.782;9.162;2022-12-07T00:37:48;20.58;;;10.85;;
25199;SDS011;33094;48.782;9.162;2022-12-07T00:40:41;18.13;;;11.07;;
25199;SDS011;33094;48.782;9.162;2022-12-07T00:46:59;16.63;;;10.07;;
25199;SDS011;33094;48.782;9.162;2022-12-07T00:56:15;19.70;;;11.07;;
25199;SDS011;33094;48.782;9.162;2022-12-07T01:02:55;20.70;;;12.15;;
25199;SDS011;33094;48.782;9.162;2022-12-07T01:19:14;22.10;;;12.38;;
25199;SDS011;33094;48.782;9.162;2022-12-07T01:38:39;21.23;;;11.32;;
25199;SDS011;33094;48.782;9.162;2022-12-07T01:41:40;22.63;;;12.38;;
25199;SDS011;33094;48.782;9.162;2022-12-07T02:08:28;23.20;;;11.93;;
25199;SDS011;33094;48.782;9.162;2022-12-07T02:11:26;19.30;;;11.52;;
25199;SDS011;33094;48.782;9.162;2022-12-07T02:25:55;21.63;;;11.93;;
25199;SDS011;33094;48.782;9.162;2022-12-07T02:29:07;24.40;;;11.98;;
25199;SDS011;33094;48.782;9.162;2022-12-07T02:32:19;21.42;;;11.75;;
25199;SDS011;33094;48.782;9.162;2022-12-07T02:38:59;21.33;;;11.80;;
25199;SDS011;33094;48.782;9.162;2022-12-07T02:42:07;18.83;;;10.82;;
25199;SDS011;33094;48.782;9.162;2022-12-07T03:07:00;17.38;;;10.02;;
25199;SDS011;33094;48.782;9.162;2022-12-07T03:23:24;19.00;;;11.05;;
25199;SDS011;33094;48.782;9.162;2022-12-07T03:26:18;19.23;;;11.45;;
25199;SDS011;33094;48.782;9.162;2022-12-07T03:29:30;20.42;;;10.57;;
25199;SDS011;33094;48.782;9.162;2022-12-07T03:35:57;19.52;;;10.80;;
25199;SDS011;33094;48.782;9.162;2022-12-07T03:38:49;21.15;;;11.50;;
25199;SDS011;33094;48.782;9.162;2022-12-07T03:50:09;24.45;;;11.93;;
25199;SDS011;33094;48.782;9.162;2022-12-07T03:59:57;18.83;;;10.88;;
25199;SDS011;33094;48.782;9.162;2022-12-07T04:06:06;18.58;;;11.13;;
25199;SDS011;33094;48.782;9.162;2022-12-07T04:08:32;25.08;;;11.63;;
25199;SDS011;33094;48.782;9.162;2022-12-07T04:11:19;21.83;;;11.80;;
25199;SDS011;33094;48.782;9.162;2022-12-07T04:14:01;22.05;;;10.95;;
25199;SDS011;33094;48.782;9.162;2022-12-07T04:19:22;20.70;;;10.65;;
25199;SDS011;33094;48.782;9.162;2022-12-07T04:31:24;23.02;;;10.65;;
25199;SDS011;33094;48.782;9.162;2022-12-07T04:34:28;19.85;;;10.27;;
25199;SDS011;33094;48.782;9.162;2022-12-07T04:37:23;18.63;;;10.55;;
25199;SDS011;33094;48.782;9.162;2022-12-07T04:40:21;17.70;;;10.27;;
25199;SDS011;33094;48.782;9.162;2022-12-07T04:43:12;15.90;;;8.43;;
25199;SDS011;33094;48.782;9.162;2022-12-07T04:45:48;19.80;;;10.68;;
25199;SDS011;33094;48.782;9.162;2022-12-07T04:48:38;19.73;;;8.38;;
25199;SDS011;33094;48.782;9.162;2022-12-07T04:51:04;17.20;;;8.68;;
25199;SDS011;33094;48.782;9.162;2022-12-07T04:53:34;12.68;;;7.18;;
25199;SDS011;33094;48.782;9.162;2022-12-07T04:56:00;15.32;;;9.25;;
25199;SDS011;33094;48.782;9.162;2022-12-07T04:58:30;16.42;;;8.95;;
25199;SDS011;33094;48.782;9.162;2022-12-07T05:00:57;17.63;;;8.55;;
25199;SDS011;33094;48.782;9.162;2022-12-07T05:03:23;12.15;;;7.57;;
25199;SDS011;33094;48.782;9.162;2022-12-07T05:05:49;12.90;;;8.23;;
25199;SDS011;33094;48.782;9.162;2022-12-07T05:08:15;13.05;;;8.05;;
25199;SDS011;33094;48.782;9.162;2022-12-07T05:10:40;13.40;;;8.05;;
25199;SDS011;33094;48.782;9.162;2022-12-07T05:13:06;15.07;;;9.02;;
25199;SDS011;33094;48.782;9.162;2022-12-07T05:15:32;13.65;;;8.15;;
25199;SDS011;33094;48.782;9.162;2022-12-07T05:17:57;14.25;;;7.93;;
25199;SDS011;33094;48.782;9.162;2022-12-07T05:20:23;14.48;;;7.38;;
25199;SDS011;33094;48.782;9.162;2022-12-07T05:22:49;18.17;;;8.30;;
25199;SDS011;33094;48.782;9.162;2022-12-07T05:25:14;25.42;;;8.10;;
25199;SDS011;33094;48.782;9.162;2022-12-07T05:27:40;12.50;;;7.50;;
25199;SDS011;33094;48.782;9.162;2022-12-07T05:30:06;12.02;;;7.53;;
25199;SDS011;33094;48.782;9.162;2022-12-07T05:32:32;12.15;;;7.63;;
25199;SDS011;33094;48.782;9.162;2022-12-07T05:34:58;18.38;;;7.82;;
25199;SDS011;33094;48.782;9.162;2022-12-07T05:37:23;12.95;;;7.40;;
25199;SDS011;33094;48.782;9.162;2022-12-07T05:39:49;14.60;;;7.90;;
25199;SDS011;33094;48.782;9.162;2022-12-07T05:42:15;14.18;;;8.15;;
25199;SDS011;33094;48.782;9.162;2022-12-07T05:44:44;16.67;;;9.55;;
25199;SDS011;33094;48.782;9.162;2022-12-07T05:47:11;19.27;;;9.90;;
25199;SDS011;33094;48.782;9.162;2022-12-07T05:52:04;19.97;;;10.93;;
25199;SDS011;33094;48.782;9.162;2022-12-07T05:54:30;16.77;;;9.23;;
25199;SDS011;33094;48.782;9.162;2022-12-07T05:56:55;19.27;;;10.40;;
25199;SDS011;33094;48.782;9.162;2022-12-07T05:59:21;18.83;;;10.68;;
25199;SDS011;33094;48.782;9.162;2022-12-07T06:01:47;16.30;;;8.60;;
25199;SDS011;33094;48.782;9.162;2022-12-07T06:04:18;17.77;;;9.68;;
25199;SDS011;33094;48.782;9.162;2022-12-07T06:06:44;16.90;;;8.90;;
25199;SDS011;33094;48.782;9.162;2022-12-07T06:09:11;20.88;;;9.35;;
25199;SDS011;33094;48.782;9.162;2022-12-07T06:11:39;18.42;;;9.60;;
25199;SDS011;33094;48.782;9.162;2022-12-07T06:14:24;14.75;;;8.85;;
25199;SDS011;33094;48.782;9.162;2022-12-07T06:16:50;19.70;;;10.40;;
25199;SDS011;33094;48.782;9.162;2022-12-07T06:19:19;18.92;;;10.57;;
25199;SDS011;33094;48.782;9.162;2022-12-07T06:21:44;15.57;;;9.07;;
25199;SDS011;33094;48.782;9.162;2022-12-07T06:24:14;18.27;;;9.60;;
25199;SDS011;33094;48.782;9.162;2022-12-07T06:26:41;15.02;;;8.00;;
25199;SDS011;33094;48.782;9.162;2022-12-07T06:29:08;14.13;;;8.70;;
25199;SDS011;33094;48.782;9.162;2022-12-07T06:31:34;19.83;;;8.48;;
25199;SDS011;33094;48.782;9.162;2022-12-07T06:34:01;21.05;;;8.77;;
25199;SDS011;33094;48.782;9.162;2022-12-07T06:36:34;15.73;;;8.25;;
25199;SDS011;33094;48.782;9.162;2022-12-07T06:39:00;16.88;;;7.43;;
25199;SDS011;33094;48.782;9.162;2022-12-07T06:41:29;19.25;;;8.00;;
25199;SDS011;33094;48.782;9.162;2022-12-07T06:43:55;13.75;;;7.70;;
25199;SDS011;33094;48.782;9.162;2022-12-07T06:46:21;13.75;;;7.90;;
25199;SDS011;33094;48.782;9.162;2022-12-07T06:48:52;17.45;;;8.35;;
25199;SDS011;33094;48.782;9.162;2022-12-07T06:51:24;15.40;;;7.82;;
25199;SDS011;33094;48.782;9.162;2022-12-07T06:53:53;23.58;;;9.43;;
25199;SDS011;33094;48.782;9.162;2022-12-07T06:56:22;16.00;;;7.80;;
25199;SDS011;33094;48.782;9.162;2022-12-07T06:58:48;12.63;;;7.35;;
25199;SDS011;33094;48.782;9.162;2022-12-07T07:01:17;14.43;;;7.07;;
25199;SDS011;33094;48.782;9.162;2022-12-07T07:03:44;10.88;;;5.40;;
25199;SDS011;33094;48.782;9.162;2022-12-07T07:06:11;12.82;;;6.70;;
25199;SDS011;33094;48.782;9.162;2022-12-07T07:08:42;13.00;;;7.53;;
25199;SDS011;33094;48.782;9.162;2022-12-07T07:11:08;12.13;;;7.20;;
25199;SDS011;33094;48.782;9.162;2022-12-07T07:13:35;14.05;;;7.60;;
25199;SDS011;33094;48.782;9.162;2022-12-07T07:16:01;15.65;;;7.18;;
25199;SDS011;33094;48.782;9.162;2022-12-07T07:18:29;10.95;;;7.03;;
25199;SDS011;33094;48.782;9.162;2022-12-07T07:20:55;16.08;;;6.85;;
25199;SDS011;33094;48.782;9.162;2022-12-07T07:23:21;14.30;;;7.63;;
25199;SDS011;33094;48.782;9.162;2022-12-07T07:25:48;9.90;;;5.00;;
25199;SDS011;33094;48.782;9.162;2022-12-07T07:28:15;13.55;;;6.75;;
25199;SDS011;33094;48.782;9.162;2022-12-07T07:30:41;13.60;;;5.53;;
25199;SDS011;33094;48.782;9.162;2022-12-07T07:33:07;13.00;;;6.70;;
25199;SDS011;33094;48.782;9.162;2022-12-07T07:35:35;17.70;;;7.18;;
25199;SDS011;33094;48.782;9.162;2022-12-07T07:38:05;17.70;;;5.90;;
25199;SDS011;33094;48.782;9.162;2022-12-07T07:40:41;11.85;;;6.35;;
25199;SDS011;33094;48.782;9.162;2022-12-07T07:43:07;11.23;;;6.47;;
25199;SDS011;33094;48.782;9.162;2022-12-07T07:45:33;9.87;;;5.20;;
25199;SDS011;33094;48.782;9.162;2022-12-07T07:47:59;12.68;;;6.40;;
25199;SDS011;33094;48.782;9.162;2022-12-07T07:50:25;13.80;;;7.07;;
25199;SDS011;33094;48.782;9.162;2022-12-07T07:52:51;12.55;;;6.18;;
25199;SDS011;33094;48.782;9.162;2022-12-07T07:55:17;13.25;;;6.10;;
25199;SDS011;33094;48.782;9.162;2022-12-07T07:57:45;13.68;;;6.60;;
25199;SDS011;33094;48.782;9.162;2022-12-07T08:00:19;8.70;;;5.68;;
25199;SDS011;33094;48.782;9.162;2022-12-07T08:02:48;12.00;;;5.93;;
25199;SDS011;33094;48.782;9.162;2022-12-07T08:05:14;16.60;;;6.68;;
25199;SDS011;33094;48.782;9.162;2022-12-07T08:07:41;11.23;;;6.15;;
25199;SDS011;33094;48.782;9.162;2022-12-07T08:10:11;13.02;;;6.18;;
25199;SDS011;33094;48.782;9.162;2022-12-07T08:12:41;11.10;;;6.00;;
25199;SDS011;33094;48.782;9.162;2022-12-07T08:18:40;11.10;;;6.03;;
25199;SDS011;33094;48.782;9.162;2022-12-07T08:21:12;10.57;;;5.05;;
25199;SDS011;33094;48.782;9.162;2022-12-07T08:23:38;10.27;;;5.78;;
25199;SDS011;33094;48.782;9.162;2022-12-07T08:28:41;10.50;;;6.28;;
25199;SDS011;33094;48.782;9.162;2022-12-07T08:31:08;10.97;;;5.80;;
25199;SDS011;33094;48.782;9.162;2022-12-07T08:33:57;17.02;;;7.35;;
25199;SDS011;33094;48.782;9.162;2022-12-07T08:36:23;14.52;;;6.82;;
25199;SDS011;33094;48.782;9.162;2022-12-07T08:39:03;14.98;;;6.88;;
25199;SDS011;33094;48.782;9.162;2022-12-07T08:41:32;16.00;;;7.47;;
25199;SDS011;33094;48.782;9.162;2022-12-07T08:44:08;12.50;;;7.28;;
25199;SDS011;33094;48.782;9.162;2022-12-07T08:46:38;17.67;;;7.30;;
25199;SDS011;33094;48.782;9.162;2022-12-07T08:49:12;15.18;;;6.85;;
25199;SDS011;33094;48.782;9.162;2022-12-07T08:51:45;17.50;;;7.18;;
25199;SDS011;33094;48.782;9.162;2022-12-07T08:54:13;11.43;;;7.03;;
25199;SDS011;33094;48.782;9.162;2022-12-07T08:56:53;16.17;;;6.72;;
25199;SDS011;33094;48.782;9.162;2022-12-07T10:34:31;8.65;;;4.80;;
25199;SDS011;33094;48.782;9.162;2022-12-07T10:37:23;9.02;;;4.85;;
25199;SDS011;33094;48.782;9.162;2022-12-07T10:40:34;12.75;;;4.20;;
25199;SDS011;33094;48.782;9.162;2022-12-07T10:43:15;9.82;;;4.68;;
25199;SDS011;33094;48.782;9.162;2022-12-07T12:01:39;5.97;;;4.55;;
25199;SDS011;33094;48.782;9.162;2022-12-07T12:04:27;8.25;;;5.10;;
25199;SDS011;33094;48.782;9.162;2022-12-07T12:06:57;7.95;;;5.57;;
25199;SDS011;33094;48.782;9.162;2022-12-07T12:09:29;10.20;;;5.70;;
25199;SDS011;33094;48.782;9.162;2022-12-07T12:14:59;9.98;;;6.07;;
25199;SDS011;33094;48.782;9.162;2022-12-07T13:59:02;14.65;;;6.53;;
25199;SDS011;33094;48.782;9.162;2022-12-07T14:11:56;13.30;;;6.80;;
25199;SDS011;33094;48.782;9.162;2022-12-07T14:14:25;16.25;;;8.25;;
25199;SDS011;33094;48.782;9.162;2022-12-07T14:17:18;20.50;;;10.52;;
25199;SDS011;33094;48.782;9.162;2022-12-07T14:19:51;13.25;;;6.85;;
25199;SDS011;33094;48.782;9.162;2022-12-07T14:22:31;12.40;;;7.30;;
25199;SDS011;33094;48.782;9.162;2022-12-07T14:27:53;11.40;;;6.63;;
25199;SDS011;33094;48.782;9.162;2022-12-07T14:30:21;12.07;;;7.72;;
25199;SDS011;33094;48.782;9.162;2022-12-07T14:32:52;14.45;;;6.72;;
25199;SDS011;33094;48.782;9.162;2022-12-07T14:35:28;15.65;;;7.30;;
25199;SDS011;33094;48.782;9.162;2022-12-07T14:37:57;15.43;;;7.35;;
25199;SDS011;33094;48.782;9.162;2022-12-07T14:40:26;13.75;;;7.40;;
25199;SDS011;33094;48.782;9.162;2022-12-07T14:43:30;12.75;;;6.25;;
25199;SDS011;33094;48.782;9.162;2022-12-07T14:46:01;10.60;;;6.50;;
25199;SDS011;33094;48.782;9.162;2022-12-07T14:48:38;19.45;;;6.93;;
25199;SDS011;33094;48.782;9.162;2022-12-07T15:08:55;21.45;;;7.35;;
25199;SDS011;33094;48.782;9.162;2022-12-07T15:11:20;17.42;;;7.80;;
25199;SDS011;33094;48.782;9.162;2022-12-07T15:13:46;13.77;;;6.82;;
25199;SDS011;33094;48.782;9.162;2022-12-07T15:16:30;13.45;;;7.60;;
25199;SDS011;33094;48.782;9.162;2022-12-07T15:18:56;15.35;;;7.13;;
25199;SDS011;33094;48.782;9.162;2022-12-07T15:21:22;11.90;;;6.95;;
25199;SDS011;33094;48.782;9.162;2022-12-07T15:23:47;15.30;;;7.32;;
25199;SDS011;33094;48.782;9.162;2022-12-07T15:26:13;15.95;;;7.85;;
25199;SDS011;33094;48.782;9.162;2022-12-07T15:28:41;12.27;;;7.35;;
25199;SDS011;33094;48.782;9.162;2022-12-07T15:34:39;12.90;;;6.65;;
25199;SDS011;33094;48.782;9.162;2022-12-07T15:37:05;16.00;;;7.30;;
25199;SDS011;33094;48.782;9.162;2022-12-07T15:39:32;10.75;;;6.93;;
25199;SDS011;33094;48.782;9.162;2022-12-07T15:41:58;12.32;;;6.15;;
25199;SDS011;33094;48.782;9.162;2022-12-07T15:44:26;15.73;;;6.82;;
25199;SDS011;33094;48.782;9.162;2022-12-07T15:50:20;15.45;;;7.57;;
25199;SDS011;33094;48.782;9.162;2022-12-07T15:52:54;15.30;;;7.47;;
25199;SDS011;33094;48.782;9.162;2022-12-07T15:55:32;14.27;;;6.95;;
25199;SDS011;33094;48.782;9.162;2022-12-07T15:58:52;15.45;;;8.00;;
25199;SDS011;33094;48.782;9.162;2022-12-07T16:01:19;11.73;;;7.13;;
25199;SDS011;33094;48.782;9.162;2022-12-07T16:03:45;15.07;;;7.88;;
25199;SDS011;33094;48.782;9.162;2022-12-07T16:06:38;18.10;;;7.65;;
25199;SDS011;33094;48.782;9.162;2022-12-07T16:09:07;13.35;;;7.50;;
25199;SDS011;33094;48.782;9.162;2022-12-07T16:11:46;17.48;;;8.70;;
25199;SDS011;33094;48.782;9.162;2022-12-07T16:14:12;17.42;;;8.52;;
25199;SDS011;33094;48.782;9.162;2022-12-07T16:16:38;14.60;;;8.48;;
25199;SDS011;33094;48.782;9.162;2022-12-07T16:19:05;15.13;;;7.95;;
25199;SDS011;33094;48.782;9.162;2022-12-07T16:23:58;14.80;;;8.75;;
25199;SDS011;33094;48.782;9.162;2022-12-07T16:26:24;18.92;;;10.18;;
25199;SDS011;33094;48.782;9.162;2022-12-07T16:28:50;18.60;;;9.02;;
25199;SDS011;33094;48.782;9.162;2022-12-07T16:31:21;15.98;;;8.50;;
25199;SDS011;33094;48.782;9.162;2022-12-07T16:33:59;20.55;;;9.70;;
25199;SDS011;33094;48.782;9.162;2022-12-07T16:36:25;18.80;;;10.05;;
25199;SDS011;33094;48.782;9.162;2022-12-07T16:38:57;17.52;;;9.77;;
25199;SDS011;33094;48.782;9.162;2022-12-07T16:41:24;18.70;;;9.90;;
25199;SDS011;33094;48.782;9.162;2022-12-07T16:43:55;18.90;;;10.25;;
25199;SDS011;33094;48.782;9.162;2022-12-07T16:46:40;17.48;;;9.63;;
25199;SDS011;33094;48.782;9.162;2022-12-07T16:49:06;17.00;;;9.87;;
25199;SDS011;33094;48.782;9.162;2022-12-07T16:51:45;16.63;;;9.82;;
25199;SDS011;33094;48.782;9.162;2022-12-07T16:54:14;18.55;;;10.25;;
25199;SDS011;33094;48.782;9.162;2022-12-07T16:56:39;25.70;;;11.98;;
25199;SDS011;33094;48.782;9.162;2022-12-07T16:59:12;15.50;;;9.05;;
25199;SDS011;33094;48.782;9.162;2022-12-07T17:01:38;18.90;;;10.15;;
25199;SDS011;33094;48.782;9.162;2022-12-07T17:04:04;19.90;;;10.25;;
25199;SDS011;33094;48.782;9.162;2022-12-07T17:06:29;17.48;;;10.15;;
25199;SDS011;33094;48.782;9.162;2022-12-07T17:08:56;19.38;;;9.60;;
25199;SDS011;33094;48.782;9.162;2022-12-07T17:13:49;22.38;;;10.85;;
25199;SDS011;33094;48.782;9.162;2022-12-07T17:16:35;23.55;;;10.43;;
25199;SDS011;33094;48.782;9.162;2022-12-07T17:19:04;22.93;;;11.43;;
25199;SDS011;33094;48.782;9.162;2022-12-07T17:21:31;26.08;;;10.95;;
25199;SDS011;33094;48.782;9.162;2022-12-07T17:24:00;18.67;;;10.13;;
25199;SDS011;33094;48.782;9.162;2022-12-07T17:26:27;18.20;;;8.10;;
25199;SDS011;33094;48.782;9.162;2022-12-07T17:28:53;18.75;;;10.18;;
25199;SDS011;33094;48.782;9.162;2022-12-07T17:31:20;17.83;;;9.63;;
25199;SDS011;33094;48.782;9.162;2022-12-07T17:33:47;22.35;;;10.30;;
25199;SDS011;33094;48.782;9.162;2022-12-07T17:36:14;24.70;;;11.52;;
25199;SDS011;33094;48.782;9.162;2022-12-07T17:38:41;25.35;;;10.85;;
25199;SDS011;33094;48.782;9.162;2022-12-07T17:41:08;18.98;;;9.77;;
25199;SDS011;33094;48.782;9.162;2022-12-07T17:43:35;19.08;;;10.13;;
25199;SDS011;33094;48.782;9.162;2022-12-07T17:46:05;21.00;;;11.32;;
25199;SDS011;33094;48.782;9.162;2022-12-07T17:48:32;25.33;;;11.40;;
25199;SDS011;33094;48.782;9.162;2022-12-07T17:51:01;21.67;;;11.23;;
25199;SDS011;33094;48.782;9.162;2022-12-07T17:53:49;23.67;;;11.20;;
25199;SDS011;33094;48.782;9.162;2022-12-07T17:56:16;23.70;;;11.65;;
25199;SDS011;33094;48.782;9.162;2022-12-07T17:58:42;22.67;;;11.55;;
25199;SDS011;33094;48.782;9.162;2022-12-07T18:01:08;23.50;;;12.23;;
25199;SDS011;33094;48.782;9.162;2022-12-07T18:03:34;22.98;;;11.68;;
25199;SDS011;33094;48.782;9.162;2022-12-07T18:06:00;24.45;;;11.80;;
25199;SDS011;33094;48.782;9.162;2022-12-07T18:08:26;28.75;;;12.80;;
25199;SDS011;33094;48.782;9.162;2022-12-07T18:10:58;24.02;;;10.63;;
25199;SDS011;33094;48.782;9.162;2022-12-07T18:13:24;21.73;;;11.48;;
25199;SDS011;33094;48.782;9.162;2022-12-07T18:16:03;23.00;;;11.20;;
25199;SDS011;33094;48.782;9.162;2022-12-07T18:18:37;21.17;;;10.18;;
25199;SDS011;33094;48.782;9.162;2022-12-07T18:21:04;14.45;;;8.30;;
25199;SDS011;33094;48.782;9.162;2022-12-07T18:23:38;23.02;;;10.57;;
25199;SDS011;33094;48.782;9.162;2022-12-07T18:28:30;19.43;;;10.60;;
25199;SDS011;33094;48.782;9.162;2022-12-07T18:30:56;20.27;;;9.75;;
25199;SDS011;33094;48.782;9.162;2022-12-07T18:33:22;19.45;;;10.77;;
25199;SDS011;33094;48.782;9.162;2022-12-07T18:35:48;20.15;;;10.85;;
25199;SDS011;33094;48.782;9.162;2022-12-07T18:38:14;24.33;;;13.02;;
25199;SDS011;33094;48.782;9.162;2022-12-07T18:40:41;21.25;;;11.63;;
25199;SDS011;33094;48.782;9.162;2022-12-07T18:43:08;22.40;;;11.48;;
25199;SDS011;33094;48.782;9.162;2022-12-07T18:45:35;21.30;;;11.80;;
25199;SDS011;33094;48.782;9.162;2022-12-07T18:55:29;17.23;;;9.00;;
25199;SDS011;33094;48.782;9.162;2022-12-07T18:57:55;17.58;;;9.70;;
25199;SDS011;33094;48.782;9.162;2022-12-07T19:00:22;18.55;;;9.45;;
25199;SDS011;33094;48.782;9.162;2022-12-07T19:02:49;17.42;;;9.02;;
25199;SDS011;33094;48.782;9.162;2022-12-07T19:05:16;21.00;;;11.48;;
25199;SDS011;33094;48.782;9.162;2022-12-07T19:07:42;19.33;;;10.53;;
25199;SDS011;33094;48.782;9.162;2022-12-07T19:10:08;16.08;;;9.13;;
25199;SDS011;33094;48.782;9.162;2022-12-07T19:12:36;16.77;;;9.23;;
25199;SDS011;33094;48.782;9.162;2022-12-07T19:15:02;17.80;;;9.00;;
25199;SDS011;33094;48.782;9.162;2022-12-07T19:17:28;16.75;;;8.98;;
25199;SDS011;33094;48.782;9.162;2022-12-07T19:19:53;16.95;;;9.65;;
25199;SDS011;33094;48.782;9.162;2022-12-07T19:22:20;18.20;;;9.98;;
25199;SDS011;33094;48.782;9.162;2022-12-07T19:24:50;19.77;;;9.95;;
25199;SDS011;33094;48.782;9.162;2022-12-07T19:27:17;20.92;;;9.57;;
25199;SDS011;33094;48.782;9.162;2022-12-07T19:29:43;20.73;;;9.55;;
25199;SDS011;33094;48.782;9.162;2022-12-07T19:32:09;17.77;;;10.57;;
25199;SDS011;33094;48.782;9.162;2022-12-07T19:34:36;20.85;;;11.88;;
25199;SDS011;33094;48.782;9.162;2022-12-07T19:37:03;17.63;;;9.75;;
25199;SDS011;33094;48.782;9.162;2022-12-07T19:41:56;18.43;;;9.97;;
25199;SDS011;33094;48.782;9.162;2022-12-07T19:44:23;21.95;;;10.05;;
25199;SDS011;33094;48.782;9.162;2022-12-07T19:46:51;22.23;;;9.38;;
25199;SDS011;33094;48.782;9.162;2022-12-07T19:49:18;18.27;;;9.43;;
25199;SDS011;33094;48.782;9.162;2022-12-07T19:51:47;22.80;;;9.60;;
25199;SDS011;33094;48.782;9.162;2022-12-07T19:54:15;16.08;;;9.02;;
25199;SDS011;33094;48.782;9.162;2022-12-07T19:56:42;16.80;;;8.80;;
25199;SDS011;33094;48.782;9.162;2022-12-07T19:59:09;20.05;;;9.65;;
25199;SDS011;33094;48.782;9.162;2022-12-07T20:01:36;20.33;;;9.20;;
25199;SDS011;33094;48.782;9.162;2022-12-07T20:04:04;16.85;;;9.25;;
25199;SDS011;33094;48.782;9.162;2022-12-07T20:06:32;20.88;;;9.63;;
25199;SDS011;33094;48.782;9.162;2022-12-07T20:08:58;23.83;;;10.02;;
25199;SDS011;33094;48.782;9.162;2022-12-07T20:11:23;16.05;;;9.00;;
25199;SDS011;33094;48.782;9.162;2022-12-07T20:14:08;19.10;;;9.85;;
25199;SDS011;33094;48.782;9.162;2022-12-07T20:16:36;16.55;;;8.45;;
25199;SDS011;33094;48.782;9.162;2022-12-07T20:19:04;17.85;;;10.48;;
25199;SDS011;33094;48.782;9.162;2022-12-07T20:21:33;19.27;;;9.50;;
25199;SDS011;33094;48.782;9.162;2022-12-07T20:24:04;18.25;;;8.88;;
25199;SDS011;33094;48.782;9.162;2022-12-07T20:26:32;17.33;;;9.25;;
25199;SDS011;33094;48.782;9.162;2022-12-07T20:28:58;15.50;;;9.43;;
25199;SDS011;33094;48.782;9.162;2022-12-07T20:31:24;15.95;;;8.68;;
25199;SDS011;33094;48.782;9.162;2022-12-07T20:33:50;22.40;;;10.13;;
25199;SDS011;33094;48.782;9.162;2022-12-07T20:36:16;15.05;;;7.70;;
25199;SDS011;33094;48.782;9.162;2022-12-07T20:38:43;18.50;;;9.32;;
25199;SDS011;33094;48.782;9.162;2022-12-07T20:41:11;17.23;;;9.75;;
25199;SDS011;33094;48.782;9.162;2022-12-07T20:43:56;20.90;;;9.77;;
25199;SDS011;33094;48.782;9.162;2022-12-07T20:46:22;22.70;;;13.18;;
25199;SDS011;33094;48.782;9.162;2022-12-07T20:48:47;17.60;;;9.77;;
25199;SDS011;33094;48.782;9.162;2022-12-07T20:51:13;17.65;;;9.52;;
25199;SDS011;33094;48.782;9.162;2022-12-07T20:53:38;15.32;;;9.18;;
25199;SDS011;33094;48.782;9.162;2022-12-07T20:56:04;18.83;;;9.05;;
25199;SDS011;33094;48.782;9.162;2022-12-07T20:58:30;21.58;;;9.20;;
25199;SDS011;33094;48.782;9.162;2022-12-07T21:01:02;16.50;;;8.20;;
25199;SDS011;33094;48.782;9.162;2022-12-07T21:03:38;15.02;;;8.55;;
25199;SDS011;33094;48.782;9.162;2022-12-07T21:06:06;16.60;;;8.40;;
